Time;durP1;ratioP1;P1;durP2;ratioP2;P2;SDS_P1;SDS_P2;PMS_P1;PMS_P2;Temp;Humidity;BMP_temperature;BMP_pressure;BME280_temperature;BME280_humidity;BME280_pressure;Samples;Min_cycle;Max_cycle;Signal;HPM_P1;HPM_P2
2022/06/14 05:12:37;;;;;;;1.57;1.47;;;;;;;21.16;71.61;97870.00;6226805;22;20401;-93
2022/06/14 05:15:37;;;;;;;1.60;1.50;;;;;;;22.09;71.96;97990.19;6192557;23;20244;-93
2022/06/14 05:18:10;;;;;;;1.60;1.50;;;;;;;22.33;71.87;98063.59;6169744;23;20168;-93
2022/06/14 05:20:44;;;;;;;1.70;1.60;;;;;;;21.26;71.75;97855.03;6192654;23;20183;-93
2022/06/14 05:23:34;;;;;;;1.73;1.63;;;;;;;22.07;71.88;97984.13;6217994;23;20196;-93
2022/06/14 05:26:25;;;;;;;1.60;1.50;;;;;;;22.33;71.80;98021.72;6220842;23;20218;-93
2022/06/14 05:29:19;;;;;;;1.70;1.60;;;;;;;19.40;71.45;97517.13;6242561;23;20165;-93
2022/06/14 05:32:23;;;;;;;1.60;1.50;;;;;;;22.34;71.63;98026.03;6220347;23;20175;-93
2022/06/14 05:34:59;;;;;;;1.60;1.50;;;;;;;19.26;71.37;97492.78;6242765;23;20183;-94
2022/06/14 05:37:53;;;;;;;1.67;1.57;;;;;;;19.16;71.57;97474.53;6216439;23;20176;-94
2022/06/14 05:40:24;;;;;;;1.70;1.60;;;;;;;22.35;71.69;98038.03;6192523;23;20164;-94
2022/06/14 05:43:17;;;;;;;1.60;1.50;;;;;;;22.34;71.67;98034.59;6215417;23;20200;-93
2022/06/14 05:45:47;;;;;;;2.17;1.80;;;;;;;22.34;71.67;98034.59;6216069;23;20161;-93
2022/06/14 05:48:20;;;;;;;1.60;1.50;;;;;;;18.01;71.43;97302.06;6216292;23;20157;-93
2022/06/14 05:50:49;;;;;;;1.67;1.57;;;;;;;17.73;71.40;97240.75;6216713;23;20157;-95
2022/06/14 05:53:24;;;;;;;1.70;1.60;;;;;;;18.60;71.53;97396.00;6191130;23;20219;-93
2022/06/14 05:55:57;;;;;;;1.90;1.80;;;;;;;22.31;71.66;98054.09;6191661;23;20188;-93
2022/06/14 05:58:29;;;;;;;1.70;1.60;;;;;;;22.19;71.63;98007.56;6216598;23;20173;-93
2022/06/14 06:00:58;;;;;;;1.67;1.57;;;;;;;21.12;71.68;97829.81;6193934;23;20161;-93
2022/06/14 06:03:43;;;;;;;1.70;1.60;;;;;;;22.35;71.81;98038.03;6192371;23;20200;-94
2022/06/14 06:06:18;;;;;;;1.83;1.73;;;;;;;18.70;71.42;97409.91;6242425;23;20175;-92
2022/06/14 06:09:10;;;;;;;1.63;1.53;;;;;;;20.76;71.41;97764.59;6193149;23;20198;-94
2022/06/14 06:11:49;;;;;;;1.60;1.50;;;;;;;20.48;71.40;97777.13;6209080;23;20165;-94
2022/06/14 06:14:17;;;;;;;2.00;1.73;;;;;;;22.35;71.49;98036.31;6214851;23;20200;-93
2022/06/14 06:17:05;;;;;;;1.70;1.60;;;;;;;20.63;71.23;97744.53;6213112;23;20184;-93
2022/06/14 06:19:53;;;;;;;1.50;1.40;;;;;;;22.36;71.58;98053.44;6195777;23;20149;-93
2022/06/14 06:22:31;;;;;;;1.90;1.80;;;;;;;19.25;71.41;97525.84;6212744;23;20192;-93
2022/06/14 06:25:04;;;;;;;1.60;1.50;;;;;;;18.05;71.30;97282.69;6189478;23;20168;-93
2022/06/14 06:27:37;;;;;;;1.80;1.70;;;;;;;21.54;71.46;97911.47;6188426;22;20197;-92
2022/06/14 06:30:19;;;;;;;1.90;1.80;;;;;;;22.09;71.84;97978.25;6189873;23;20154;-93
2022/06/14 06:32:46;;;;;;;1.67;1.57;;;;;;;21.14;71.23;97838.41;6214770;23;20199;-93
2022/06/14 06:35:13;;;;;;;1.70;1.60;;;;;;;20.51;71.46;97711.75;6213935;23;20181;-93
2022/06/14 06:37:46;;;;;;;1.90;1.80;;;;;;;22.15;71.39;97988.72;6212862;23;20416;-94
2022/06/14 06:40:17;;;;;;;1.70;1.60;;;;;;;19.13;71.40;97517.72;6189002;23;20180;-92
2022/06/14 06:42:46;;;;;;;1.70;1.60;;;;;;;18.89;71.30;97432.75;6213837;23;20181;-92
2022/06/14 06:45:19;;;;;;;1.70;1.60;;;;;;;22.06;71.59;97993.50;6186964;23;20169;-93
2022/06/14 06:47:52;;;;;;;1.70;1.60;;;;;;;22.36;71.56;98040.66;6213093;23;20162;-94
2022/06/14 06:50:21;;;;;;;2.60;1.87;;;;;;;19.47;71.24;97592.13;6213228;23;20161;-93
2022/06/14 06:53:10;;;;;;;1.70;1.60;;;;;;;22.37;71.46;98038.94;6213167;23;20188;-93
2022/06/14 06:55:58;;;;;;;1.90;1.80;;;;;;;22.38;71.26;98036.44;6223402;23;20212;-94
2022/06/14 06:58:28;;;;;;;1.60;1.50;;;;;;;17.62;71.08;97225.91;6239220;22;20157;-93
2022/06/14 07:00:57;;;;;;;1.80;1.70;;;;;;;18.61;71.00;97379.03;6212470;23;20173;-93
2022/06/14 07:03:44;;;;;;;1.70;1.60;;;;;;;21.20;71.45;97872.72;6186750;23;20193;-94
2022/06/14 07:06:35;;;;;;;2.40;1.80;;;;;;;20.81;71.44;97760.53;6210667;23;20188;-93
2022/06/14 07:09:11;;;;;;;1.80;1.70;;;;;;;20.76;71.29;97782.47;6199309;23;20184;-94
2022/06/14 07:11:40;;;;;;;1.90;1.80;;;;;;;21.93;71.42;97960.63;6238353;23;20161;-93
2022/06/14 07:14:12;;;;;;;1.80;1.70;;;;;;;21.64;71.38;97912.63;6213400;23;20197;-93
2022/06/14 07:16:52;;;;;;;1.70;1.60;;;;;;;22.08;71.40;97988.44;6163481;23;20177;-95
2022/06/14 07:19:42;;;;;;;1.97;1.87;;;;;;;22.38;71.50;98040.69;6187908;23;20179;-94
2022/06/14 07:22:13;;;;;;;1.63;1.53;;;;;;;22.36;71.40;98040.66;6188366;23;20161;-93
2022/06/14 07:24:51;;;;;;;1.80;1.70;;;;;;;22.36;71.45;98038.09;6187538;23;20180;-92
2022/06/14 07:27:42;;;;;;;1.70;1.60;;;;;;;21.67;71.40;97908.50;6196545;23;20203;-94
2022/06/14 07:30:12;;;;;;;1.53;1.43;;;;;;;21.56;71.41;97898.72;6163811;23;20173;-93
2022/06/14 07:32:48;;;;;;;2.00;1.83;;;;;;;21.42;71.51;97890.56;6188789;23;20236;-93
2022/06/14 07:35:16;;;;;;;2.03;1.83;;;;;;;20.55;71.07;97726.38;6187695;23;20417;-94
2022/06/14 07:37:48;;;;;;;1.80;1.70;;;;;;;18.35;71.15;97349.16;6188087;23;20172;-94
2022/06/14 07:40:45;;;;;;;1.83;1.70;;;;;;;20.69;71.36;97732.00;6197417;22;20220;-94
2022/06/14 07:43:48;;;;;;;1.73;1.63;;;;;;;19.86;71.18;97593.63;6187047;23;20202;-94
2022/06/14 07:46:16;;;;;;;1.70;1.60;;;;;;;17.94;71.02;97300.06;6092363;23;20171;-93
2022/06/14 07:48:58;;;;;;;1.80;1.70;;;;;;;22.37;71.37;98026.13;6165740;23;20177;-93
2022/06/14 07:51:34;;;;;;;1.93;1.83;;;;;;;21.12;71.26;97810.25;6210589;22;20200;-93
2022/06/14 07:54:06;;;;;;;1.73;1.63;;;;;;;22.38;71.45;98025.31;6187820;23;20199;-94
2022/06/14 07:56:48;;;;;;;1.70;1.60;;;;;;;22.38;71.42;98030.44;6212279;23;20191;-92
2022/06/14 07:59:16;;;;;;;1.70;1.60;;;;;;;19.85;71.49;97591.88;6187923;23;20145;-93
2022/06/14 08:02:00;;;;;;;1.87;1.77;;;;;;;21.43;71.39;97866.72;6162329;23;20165;-94
2022/06/14 08:05:05;;;;;;;1.73;1.63;;;;;;;22.15;71.38;97993.81;6212751;22;20758;-94
2022/06/14 08:07:32;;;;;;;1.80;1.70;;;;;;;22.12;71.38;97982.59;6198245;23;20172;-94
2022/06/14 08:10:09;;;;;;;1.80;1.70;;;;;;;22.35;71.47;98020.97;6163318;22;20176;-94
2022/06/14 08:12:52;;;;;;;1.70;1.60;;;;;;;22.38;71.35;98021.06;6163728;23;20227;-93
2022/06/14 08:15:29;;;;;;;1.70;1.60;;;;;;;21.42;71.06;97893.13;6188112;23;20161;-94
2022/06/14 08:18:03;;;;;;;1.77;1.67;;;;;;;18.92;71.04;97409.94;6187938;23;20184;-92
2022/06/14 08:20:40;;;;;;;1.90;1.80;;;;;;;22.17;71.27;98004.13;6213309;23;20168;-94
2022/06/14 08:23:11;;;;;;;1.70;1.60;;;;;;;19.13;71.21;97452.34;6188571;23;20260;-94
2022/06/14 08:25:45;;;;;;;1.90;1.80;;;;;;;18.91;70.99;97416.69;6187437;23;20164;-93
2022/06/14 08:28:24;;;;;;;1.60;1.50;;;;;;;21.65;71.25;97892.22;6186309;23;20169;-94
2022/06/14 08:30:56;;;;;;;2.10;1.90;;;;;;;18.27;70.96;97325.09;6188538;23;20181;-93
2022/06/14 08:33:36;;;;;;;2.07;1.90;;;;;;;21.80;71.12;97916.63;6187540;23;20220;-92
2022/06/14 08:36:08;;;;;;;1.77;1.67;;;;;;;21.68;70.96;97897.44;6187670;23;20168;-95
2022/06/14 08:38:45;;;;;;;1.73;1.63;;;;;;;19.16;71.14;97483.03;6161111;23;20162;-94
2022/06/14 08:41:14;;;;;;;1.97;1.87;;;;;;;22.39;71.51;98022.81;6163517;23;20172;-94
2022/06/14 08:43:43;;;;;;;1.93;1.70;;;;;;;19.66;71.17;97546.13;6211111;23;20205;-94
2022/06/14 08:46:20;;;;;;;1.83;1.73;;;;;;;22.39;71.35;98021.94;6186557;23;20177;-93
2022/06/14 08:49:07;;;;;;;1.80;1.70;;;;;;;22.39;71.51;98017.69;6187117;23;20168;-93
2022/06/14 08:51:34;;;;;;;1.83;1.73;;;;;;;22.39;71.26;98011.69;6210993;23;20173;-94
2022/06/14 08:54:14;;;;;;;2.70;1.80;;;;;;;22.38;71.25;98013.38;6185963;23;20193;-93
2022/06/14 08:56:43;;;;;;;1.87;1.77;;;;;;;22.39;71.24;98012.56;6213975;23;20165;-93
2022/06/14 08:59:22;;;;;;;1.63;1.53;;;;;;;22.40;71.27;98008.31;6186966;23;20203;-94
2022/06/14 09:02:11;;;;;;;1.70;1.60;;;;;;;22.40;71.08;98003.19;6212898;23;20177;-93
2022/06/14 09:05:06;;;;;;;1.77;1.67;;;;;;;22.39;71.22;98010.03;6237457;23;20184;-93
2022/06/14 09:07:48;;;;;;;1.70;1.60;;;;;;;22.40;71.33;98008.31;6213013;23;20196;-93
2022/06/14 09:10:30;;;;;;;1.70;1.60;;;;;;;22.39;71.26;98007.44;6187855;23;20157;-92
2022/06/14 09:13:05;;;;;;;1.70;1.60;;;;;;;22.39;71.18;98007.44;6217885;23;20833;-93
2022/06/14 09:15:58;;;;;;;1.80;1.70;;;;;;;22.39;71.26;98009.13;6213643;23;20149;-93
2022/06/14 09:18:37;;;;;;;1.70;1.60;;;;;;;21.65;71.38;97912.69;6237883;23;20196;-94
2022/06/14 09:21:07;;;;;;;1.80;1.70;;;;;;;22.40;71.30;97995.50;6164225;23;20168;-93
2022/06/14 09:23:58;;;;;;;1.70;1.60;;;;;;;22.39;71.26;97997.22;6211457;23;20196;-93
2022/06/14 09:26:27;;;;;;;1.70;1.60;;;;;;;22.39;71.18;97998.88;6210872;23;20168;-93
2022/06/14 09:29:11;;;;;;;1.73;1.63;;;;;;;22.12;71.42;97965.56;6212708;23;20177;-94
2022/06/14 09:31:53;;;;;;;1.50;1.40;;;;;;;22.40;71.42;98003.19;6213441;23;20176;-93
2022/06/14 09:34:38;;;;;;;1.50;1.40;;;;;;;22.40;71.19;98000.63;6212588;23;20192;-94
2022/06/14 09:37:20;;;;;;;1.70;1.60;;;;;;;22.41;71.25;97997.25;6214308;23;20201;-92
2022/06/14 09:40:19;;;;;;;1.90;1.80;;;;;;;22.41;71.17;97997.25;6212757;23;20157;-94
2022/06/14 09:43:23;;;;;;;1.80;1.70;;;;;;;22.40;71.26;97996.38;6168781;23;20184;-94
2022/06/14 09:46:23;;;;;;;1.87;1.77;;;;;;;21.57;71.03;97870.66;6239255;23;20169;-93
2022/06/14 09:49:08;;;;;;;1.80;1.70;;;;;;;22.40;71.30;97993.81;6166749;23;20164;-93
2022/06/14 09:51:40;;;;;;;1.70;1.60;;;;;;;22.39;71.15;97992.09;6213689;23;20157;-93
2022/06/14 09:54:35;;;;;;;1.70;1.60;;;;;;;22.40;71.26;97990.38;6213689;23;20193;-93
2022/06/14 09:57:13;;;;;;;1.63;1.53;;;;;;;22.40;71.21;97992.94;6239671;23;20204;-93
2022/06/14 10:00:21;;;;;;;1.80;1.70;;;;;;;22.40;71.16;97995.50;6215005;23;20161;-93
2022/06/14 10:03:09;;;;;;;1.63;1.53;;;;;;;22.40;71.27;97998.94;6235266;23;20188;-94
2022/06/14 10:05:55;;;;;;;1.57;1.47;;;;;;;22.40;71.25;97990.38;6212019;23;20236;-93
2022/06/14 10:08:43;;;;;;;2.00;1.90;;;;;;;22.39;71.35;97989.53;6210603;23;20177;-94
2022/06/14 10:11:31;;;;;;;1.83;1.73;;;;;;;22.37;71.30;97975.78;6213391;23;20161;-92
2022/06/14 10:14:04;;;;;;;1.70;1.60;;;;;;;18.91;71.06;97398.88;6239501;23;20204;-92
2022/06/14 10:16:38;;;;;;;1.93;1.83;;;;;;;19.24;71.00;97489.28;6187116;23;20228;-94
2022/06/14 10:19:18;;;;;;;1.63;1.53;;;;;;;21.98;71.26;97905.34;6188435;23;20184;-93
2022/06/14 10:21:54;;;;;;;1.70;1.60;;;;;;;20.89;71.12;97733.53;6189310;23;20182;-94
2022/06/14 10:24:30;;;;;;;1.70;1.57;;;;;;;22.40;71.22;97978.44;6164576;23;20193;-94
2022/06/14 10:29:49;;;;;;;1.97;1.80;;;;;;;22.40;71.17;97982.69;6197174;23;20164;-93
2022/06/14 10:32:19;;;;;;;1.80;1.70;;;;;;;22.40;71.17;97973.34;6212622;23;20204;-95
2022/06/14 10:34:48;;;;;;;1.70;1.60;;;;;;;20.17;70.92;97583.75;6212398;23;20247;-94
2022/06/14 10:37:26;;;;;;;1.67;1.57;;;;;;;22.40;71.18;97977.56;6211955;23;20216;-93
2022/06/14 10:40:20;;;;;;;1.90;1.80;;;;;;;22.39;71.26;97971.59;6186673;23;20179;-94
2022/06/14 10:43:08;;;;;;;1.80;1.70;;;;;;;22.41;71.29;97974.22;6237413;23;20181;-93
2022/06/14 10:45:47;;;;;;;1.87;1.77;;;;;;;20.06;70.93;97567.16;6210881;23;20154;-95
2022/06/14 10:48:27;;;;;;;1.70;1.60;;;;;;;22.41;71.28;97969.09;6187229;23;20157;-93
2022/06/14 10:51:23;;;;;;;1.60;1.50;;;;;;;22.40;71.31;97962.19;6187196;23;20169;-94
2022/06/14 10:54:11;;;;;;;1.70;1.60;;;;;;;21.84;71.28;97864.78;6166417;23;20177;-93
2022/06/14 10:56:40;;;;;;;1.60;1.50;;;;;;;22.41;71.25;97958.84;6212064;23;20177;-93
2022/06/14 10:59:16;;;;;;;1.90;1.70;;;;;;;22.28;71.17;97937.06;6237094;23;20177;-94
2022/06/14 11:02:04;;;;;;;2.03;1.83;;;;;;;22.41;71.20;97948.59;6188164;23;20156;-94
2022/06/14 11:04:56;;;;;;;1.80;1.70;;;;;;;20.80;71.08;97674.47;6186178;23;20177;-93
2022/06/14 11:08:04;;;;;;;1.80;1.70;;;;;;;22.41;71.11;97946.03;6189755;23;20156;-93
2022/06/14 11:10:50;;;;;;;1.70;1.60;;;;;;;18.53;70.99;97286.28;6212629;23;20184;-94
2022/06/14 11:13:23;;;;;;;2.00;1.90;;;;;;;22.42;71.25;97950.34;6217361;22;20183;-90
2022/06/14 11:16:24;;;;;;;1.50;1.40;;;;;;;22.41;71.24;97941.75;6311338;22;20174;-92
2022/06/14 11:18:54;;;;;;;1.80;1.70;;;;;;;22.41;71.20;97944.31;6297638;22;20183;-93
2022/06/14 11:21:31;;;;;;;1.63;1.53;;;;;;;22.41;71.09;97935.78;6309379;22;20187;-90
2022/06/14 11:24:09;;;;;;;1.77;1.67;;;;;;;17.31;71.22;97066.28;6313834;22;20179;-93
2022/06/14 11:26:58;;;;;;;1.70;1.60;;;;;;;18.00;71.38;97177.41;6298457;22;20186;-93
2022/06/14 11:29:53;;;;;;;1.63;1.53;;;;;;;22.41;71.31;97923.84;6208824;22;20211;-93
2022/06/14 11:32:47;;;;;;;1.60;1.50;;;;;;;21.36;71.04;97793.19;6229798;22;20188;-91
2022/06/14 11:38:23;;;;;;;1.60;1.50;;;;;;;22.42;71.39;97922.16;6259515;22;20564;-92
2022/06/14 11:46:14;;;;;;;1.83;1.73;;;;;;;19.25;70.78;97368.75;6281781;22;20186;-92
2022/06/14 11:51:24;;;;;;;1.70;1.60;;;;;;;19.30;70.92;97369.78;6334052;22;20213;-91
2022/06/14 11:56:41;;;;;;;1.87;1.77;;;;;;;19.32;70.84;97387.69;6275159;22;20182;-93
2022/06/14 11:59:39;;;;;;;1.80;1.70;;;;;;;22.41;71.14;97900.78;6253821;22;20144;-93
2022/06/14 12:02:46;;;;;;;1.80;1.70;;;;;;;17.45;71.75;97072.81;6254310;22;20187;-92
2022/06/14 12:06:00;;;;;;;1.77;1.67;;;;;;;19.67;71.03;97428.91;6255459;22;20168;-91
2022/06/14 12:13:56;;;;;;;2.00;1.90;;;;;;;22.41;71.34;97900.78;6252082;22;20184;-94
2022/06/14 12:22:28;;;;;;;1.87;1.77;;;;;;;22.42;71.03;97888.88;6273868;22;20167;-93
2022/06/14 12:27:40;;;;;;;1.80;1.70;;;;;;;19.96;71.89;97486.03;6266229;22;20199;-93
2022/06/14 12:30:07;;;;;;;1.63;1.53;;;;;;;20.81;70.99;97658.34;6279481;22;20152;-93
2022/06/14 12:32:42;;;;;;;1.90;1.80;;;;;;;18.11;71.83;97164.28;6228350;22;20147;-92
2022/06/14 12:35:18;;;;;;;1.70;1.60;;;;;;;22.42;71.06;97902.56;6253718;22;20160;-94
2022/06/14 12:38:25;;;;;;;1.70;1.60;;;;;;;22.42;71.12;97886.31;6278368;22;20174;-92
2022/06/14 12:41:07;;;;;;;1.73;1.63;;;;;;;17.95;70.80;97149.25;6291540;22;20189;-93
2022/06/14 12:43:37;;;;;;;1.93;1.83;;;;;;;22.42;71.21;97876.06;6249798;22;20193;-93
2022/06/14 12:49:36;;;;;;;1.60;1.50;;;;;;;19.04;70.81;97313.63;6281674;22;20179;-94
2022/06/14 13:00:14;;;;;;;1.60;1.50;;;;;;;19.82;70.93;97419.25;6306768;22;20554;-94
2022/06/14 13:02:57;;;;;;;1.70;1.60;;;;;;;22.43;71.13;97864.97;6266112;22;20196;-92
2022/06/14 13:05:58;;;;;;;1.70;1.60;;;;;;;22.43;71.07;97855.63;6260742;22;20221;-91
2022/06/14 13:09:28;;;;;;;1.60;1.50;;;;;;;22.43;71.12;97854.75;6275213;22;20160;-91
2022/06/14 13:15:09;;;;;;;1.70;1.60;;;;;;;19.13;70.20;97331.78;6274684;22;20176;-93
2022/06/14 13:17:49;;;;;;;1.70;1.60;;;;;;;22.44;71.11;97856.50;6208204;22;20203;-95
2022/06/14 13:20:47;;;;;;;1.70;1.50;;;;;;;22.43;71.20;97844.50;6226888;23;20260;-92
2022/06/14 13:23:20;;;;;;;1.70;1.60;;;;;;;22.41;71.13;97854.69;6214311;23;20185;-91
2022/06/14 13:26:24;;;;;;;1.80;1.70;;;;;;;22.42;71.23;97837.66;6192233;23;20537;-92
2022/06/14 13:29:19;;;;;;;1.70;1.60;;;;;;;17.85;70.80;97072.59;6165430;23;20216;-94
2022/06/14 13:34:43;;;;;;;1.80;1.70;;;;;;;22.43;71.13;97842.81;6270049;22;20184;-90
2022/06/14 13:43:02;;;;;;;1.80;1.70;;;;;;;22.43;71.20;97831.69;6269942;22;20179;-93
2022/06/14 13:46:01;;;;;;;1.63;1.53;;;;;;;22.44;71.08;97836.84;6253824;22;20222;-93
2022/06/14 13:48:43;;;;;;;1.60;1.50;;;;;;;17.37;71.47;96961.53;6281249;22;20190;-92
2022/06/14 13:54:14;;;;;;;1.80;1.70;;;;;;;18.41;71.02;97150.97;6274687;22;20227;-92
2022/06/14 13:57:27;;;;;;;1.70;1.60;;;;;;;22.44;71.09;97831.72;6250977;22;20199;-91
2022/06/14 14:05:27;;;;;;;1.60;1.50;;;;;;;22.43;71.15;97818.88;6274032;22;20171;-91
2022/06/14 14:08:45;;;;;;;1.80;1.70;;;;;;;22.42;71.12;97823.16;6246137;22;20207;-91
2022/06/14 14:17:06;;;;;;;1.83;1.73;;;;;;;22.42;71.23;97812.91;6292907;22;20205;-92
2022/06/14 14:19:43;;;;;;;1.50;1.40;;;;;;;22.42;71.27;97815.47;6249821;22;20193;-92
2022/06/14 14:22:18;;;;;;;1.63;1.53;;;;;;;19.09;70.86;97245.84;6279551;22;20170;-91
2022/06/14 14:24:53;;;;;;;1.73;1.63;;;;;;;22.44;71.01;97802.72;6204194;22;20144;-92
2022/06/14 14:27:32;;;;;;;3.53;1.80;;;;;;;22.44;71.15;97801.00;6225086;22;20183;-90
2022/06/14 14:35:49;;;;;;;1.70;1.60;;;;;;;18.57;70.74;97166.84;6281029;22;20190;-91
2022/06/14 14:38:41;;;;;;;1.80;1.70;;;;;;;22.44;71.04;97790.75;6230440;22;20176;-93
2022/06/14 14:41:37;;;;;;;1.60;1.50;;;;;;;19.39;71.47;97323.41;6274867;22;20141;-93
2022/06/14 14:49:55;;;;;;;1.87;1.77;;;;;;;16.78;70.69;96846.81;6260729;22;20185;-90
2022/06/14 15:06:11;;;;;;;1.60;1.50;;;;;;;18.37;70.88;97122.00;6298797;22;20220;-91
2022/06/14 15:08:40;;;;;;;1.77;1.67;;;;;;;18.79;70.94;97181.16;6224050;22;20176;-92
2022/06/14 15:13:52;;;;;;;1.87;1.77;;;;;;;22.45;71.08;97754.09;6264953;22;20238;-93
2022/06/14 15:16:47;;;;;;;1.50;1.40;;;;;;;18.07;70.82;97014.09;6277207;22;20190;-93
2022/06/14 15:24:38;;;;;;;1.70;1.60;;;;;;;19.30;70.80;97260.25;6320837;22;20199;-93
2022/06/14 15:27:06;;;;;;;1.70;1.60;;;;;;;21.19;71.45;97565.94;6259059;22;20147;-93
2022/06/14 15:35:02;;;;;;;1.47;1.37;;;;;;;18.43;70.90;97126.44;6235943;22;20183;-93
2022/06/14 15:37:34;;;;;;;1.50;1.40;;;;;;;17.74;70.60;96990.03;6254872;22;20182;-90
2022/06/14 15:42:56;;;;;;;1.57;1.47;;;;;;;22.45;71.21;97740.41;6293925;22;20218;-93
2022/06/14 15:45:45;;;;;;;1.63;1.53;;;;;;;18.34;70.86;97049.75;6258775;22;20147;-90
2022/06/14 15:48:39;;;;;;;1.50;1.40;;;;;;;18.23;70.88;97012.13;6279089;22;20151;-92
2022/06/14 15:59:58;;;;;;;1.70;1.60;;;;;;;22.45;71.00;97732.72;6305082;22;20170;-94
2022/06/14 16:02:34;;;;;;;1.60;1.50;;;;;;;18.52;70.94;97060.59;6279103;22;20146;-93
2022/06/14 16:08:36;;;;;;;1.60;1.50;;;;;;;18.27;71.26;97024.94;6299040;22;20176;-91
2022/06/14 16:13:58;;;;;;;1.60;1.50;;;;;;;19.30;70.93;97193.16;6301283;22;20246;-94
2022/06/14 16:21:52;;;;;;;1.60;1.50;;;;;;;20.12;71.03;97317.34;6335095;22;20189;-92
2022/06/14 16:24:19;;;;;;;1.70;1.60;;;;;;;19.16;69.88;97185.00;6278641;22;20248;-91
2022/06/14 16:26:58;;;;;;;1.60;1.50;;;;;;;22.44;71.13;97716.50;6278991;22;20140;-92
2022/06/14 16:29:34;;;;;;;1.50;1.40;;;;;;;22.44;71.03;97708.81;6278747;22;20185;-91
2022/06/14 16:32:07;;;;;;;1.60;1.50;;;;;;;22.46;71.02;97716.53;6271344;22;20202;-92
2022/06/14 16:34:51;;;;;;;1.50;1.40;;;;;;;19.31;70.98;97175.38;6280953;22;20174;-94
2022/06/14 16:51:10;;;;;;;2.00;1.90;;;;;;;17.39;71.20;96854.13;6336244;22;20163;-93
2022/06/14 16:54:22;;;;;;;1.70;1.60;;;;;;;22.44;71.12;97700.28;6278983;22;20212;-91
2022/06/14 16:57:08;;;;;;;1.37;1.33;;;;;;;22.44;71.26;97741.25;6311338;22;20155;-92
2022/06/14 16:59:51;;;;;;;1.80;1.70;;;;;;;17.89;71.01;96953.28;6337974;22;20159;-92
2022/06/14 17:02:34;;;;;;;1.60;1.50;;;;;;;22.44;71.22;97701.13;6286625;22;20139;-93
2022/06/14 17:05:17;;;;;;;1.43;1.40;;;;;;;22.44;71.22;97700.28;6313832;22;20147;-92
2022/06/14 17:08:06;;;;;;;1.53;1.43;;;;;;;21.17;71.18;97480.72;6312745;22;20139;-92
2022/06/14 17:13:36;;;;;;;1.60;1.50;;;;;;;22.45;71.12;97696.88;6279553;22;20196;-93
2022/06/14 17:16:13;;;;;;;1.70;1.60;;;;;;;14.94;70.49;96429.41;6269414;22;20171;-92
2022/06/14 17:18:45;;;;;;;1.90;1.80;;;;;;;16.05;70.60;96676.69;6244435;22;20171;-94
2022/06/14 17:21:41;;;;;;;1.67;1.57;;;;;;;17.80;70.82;96931.81;6243438;22;20163;-93
2022/06/14 17:24:14;;;;;;;2.27;1.70;;;;;;;22.45;70.88;97691.75;6268026;22;20199;-94
2022/06/14 17:32:37;;;;;;;1.70;1.60;;;;;;;16.36;70.75;96683.72;6252762;22;20241;-93
2022/06/14 17:35:05;;;;;;;1.73;1.63;;;;;;;15.99;70.53;96605.50;6219012;22;20155;-92
2022/06/14 17:37:38;;;;;;;1.70;1.60;;;;;;;15.85;70.35;96545.03;6267158;22;20187;-92
2022/06/14 17:40:25;;;;;;;1.70;1.60;;;;;;;16.14;70.80;96622.94;6243150;22;20172;-92
2022/06/14 17:43:16;;;;;;;1.70;1.60;;;;;;;18.35;70.90;96993.00;6247760;22;20210;-93
2022/06/14 17:45:58;;;;;;;1.70;1.60;;;;;;;20.98;71.06;97571.25;6241425;22;20183;-92
2022/06/14 17:48:24;;;;;;;1.80;1.70;;;;;;;22.44;71.12;97693.44;6242907;22;20167;-94
2022/06/14 17:50:58;;;;;;;1.60;1.50;;;;;;;13.79;70.73;96244.66;6268378;22;20182;-94
2022/06/14 17:53:48;;;;;;;1.60;1.50;;;;;;;22.45;71.02;97692.63;6267684;22;20195;-92
2022/06/14 17:56:24;;;;;;;1.70;1.60;;;;;;;20.97;71.07;97507.34;6265305;22;20199;-93
2022/06/14 17:59:18;;;;;;;1.60;1.50;;;;;;;17.42;70.24;96882.16;6240982;22;20221;-94
2022/06/14 18:02:03;;;;;;;1.70;1.60;;;;;;;19.16;70.78;97197.72;6265883;22;20190;-93
2022/06/14 18:04:49;;;;;;;1.60;1.50;;;;;;;20.58;71.00;97384.34;6265661;22;20202;-94
2022/06/14 18:07:16;;;;;;;1.77;1.67;;;;;;;19.62;70.88;97195.91;6217288;22;20168;-93
2022/06/14 18:09:43;;;;;;;1.97;1.87;;;;;;;22.44;71.21;97688.31;6216393;22;20202;-94
2022/06/14 18:12:10;;;;;;;1.80;1.70;;;;;;;18.10;70.96;97027.78;6269826;22;20159;-93
2022/06/14 18:14:39;;;;;;;1.63;1.53;;;;;;;18.68;71.13;97108.66;6213783;23;20200;-92
2022/06/14 18:17:06;;;;;;;1.73;1.63;;;;;;;18.03;70.75;96928.38;6213667;23;20206;-94
2022/06/14 18:22:34;;;;;;;1.80;1.70;;;;;;;22.44;71.20;97692.59;6241316;23;20206;-93
2022/06/14 18:25:04;;;;;;;1.70;1.60;;;;;;;14.85;70.51;96440.81;6236375;23;20267;-93
2022/06/14 18:27:31;;;;;;;1.90;1.80;;;;;;;15.46;70.64;96495.47;6213333;23;20175;-93
2022/06/14 18:30:09;;;;;;;1.83;1.73;;;;;;;16.65;70.90;96688.22;6238608;23;20172;-94
2022/06/14 18:32:39;;;;;;;1.70;1.60;;;;;;;20.40;70.96;97344.63;6215633;23;20203;-92
2022/06/14 18:35:12;;;;;;;1.87;1.77;;;;;;;17.92;70.91;97003.41;6212298;23;20202;-94
2022/06/14 18:37:46;;;;;;;1.70;1.60;;;;;;;18.01;70.74;96966.44;6212557;23;20196;-93
2022/06/14 18:40:16;;;;;;;1.50;1.40;;;;;;;22.45;71.09;97700.31;6212883;23;20176;-92
2022/06/14 18:42:42;;;;;;;1.60;1.50;;;;;;;22.46;71.08;97702.03;6261138;22;20199;-93
2022/06/14 18:45:13;;;;;;;1.80;1.70;;;;;;;22.45;70.97;97694.31;6260723;23;20172;-94
2022/06/14 18:47:53;;;;;;;1.60;1.50;;;;;;;17.91;71.15;97027.06;6260574;23;20191;-94
2022/06/14 18:50:31;;;;;;;1.67;1.57;;;;;;;20.14;71.12;97318.31;6238992;23;20482;-94
2022/06/14 18:53:03;;;;;;;1.60;1.50;;;;;;;22.45;70.85;97694.31;6213904;22;20222;-92
2022/06/14 18:55:34;;;;;;;1.70;1.60;;;;;;;18.03;70.48;96941.91;6260117;23;20176;-93
2022/06/14 18:58:10;;;;;;;1.67;1.57;;;;;;;18.72;71.43;97123.22;6233319;23;20184;-94
2022/06/14 19:00:39;;;;;;;1.77;1.67;;;;;;;21.82;71.42;97646.38;6211609;23;20164;-93
2022/06/14 19:03:24;;;;;;;1.50;1.40;;;;;;;22.45;71.27;97702.00;6209628;23;20192;-93
2022/06/14 19:06:02;;;;;;;1.80;1.70;;;;;;;22.44;71.18;97696.00;6260557;23;20166;-93
2022/06/14 19:08:28;;;;;;;1.80;1.70;;;;;;;22.44;70.97;97696.00;6260095;23;20168;-94
2022/06/14 19:11:25;;;;;;;1.70;1.60;;;;;;;22.45;71.16;97700.31;6262107;23;20203;-93
2022/06/14 19:14:16;;;;;;;1.80;1.70;;;;;;;22.46;71.11;97703.72;6244112;22;20222;-93
2022/06/14 19:17:12;;;;;;;1.50;1.40;;;;;;;19.45;70.94;97305.78;6266809;22;20171;-94
2022/06/14 19:20:00;;;;;;;1.80;1.70;;;;;;;22.46;71.00;97699.47;6244475;22;20152;-93
2022/06/14 19:22:52;;;;;;;1.77;1.67;;;;;;;22.44;71.01;97701.13;6267563;22;20198;-94
2022/06/14 19:25:34;;;;;;;1.60;1.50;;;;;;;22.45;71.09;97699.44;6267175;22;20163;-93
2022/06/14 19:28:09;;;;;;;1.40;1.37;;;;;;;22.45;71.12;97702.88;6266833;22;20197;-92
2022/06/14 19:30:44;;;;;;;1.60;1.50;;;;;;;20.33;71.09;97335.91;6267424;22;20156;-92
2022/06/14 19:33:22;;;;;;;1.70;1.60;;;;;;;16.62;70.54;96769.28;6243466;22;20241;-95
2022/06/14 19:35:59;;;;;;;1.50;1.40;;;;;;;15.35;70.59;96525.44;6242654;22;20159;-93
2022/06/14 19:38:51;;;;;;;1.60;1.50;;;;;;;22.44;71.21;97697.72;6216915;22;20179;-93
2022/06/14 19:41:32;;;;;;;1.70;1.60;;;;;;;14.86;71.04;96386.94;6253325;22;20225;-93
2022/06/14 19:44:04;;;;;;;1.53;1.43;;;;;;;17.48;70.89;96896.78;6241535;22;20191;-93
2022/06/14 19:46:49;;;;;;;1.77;1.67;;;;;;;22.45;70.84;97704.56;6266151;22;20179;-94
2022/06/14 19:52:12;;;;;;;1.70;1.60;;;;;;;19.00;70.85;97118.22;6247462;22;20163;-94
2022/06/14 19:54:40;;;;;;;1.60;1.50;;;;;;;19.78;71.01;97259.28;6238849;22;20192;-94
2022/06/14 19:57:11;;;;;;;1.53;1.43;;;;;;;18.11;70.54;97010.84;6264275;22;20246;-94
2022/06/14 19:59:49;;;;;;;1.50;1.40;;;;;;;16.46;70.53;96708.63;6264577;22;20192;-93
2022/06/14 20:02:16;;;;;;;1.70;1.60;;;;;;;19.06;71.31;97185.50;6263918;22;20164;-94
2022/06/14 20:04:55;;;;;;;1.60;1.50;;;;;;;20.78;70.84;97461.59;6239131;22;20191;-93
2022/06/14 20:07:21;;;;;;;1.60;1.50;;;;;;;20.16;70.49;97315.81;6265155;22;20179;-93
2022/06/14 20:10:03;;;;;;;1.60;1.50;;;;;;;17.83;71.00;96927.66;6213928;22;20222;-93
2022/06/14 20:12:33;;;;;;;1.73;1.63;;;;;;;16.22;70.71;96657.00;6244605;22;20163;-94
2022/06/14 20:15:18;;;;;;;1.60;1.50;;;;;;;18.68;71.14;97091.69;6212494;23;20196;-94
2022/06/14 20:17:55;;;;;;;1.60;1.50;;;;;;;16.20;70.61;96707.66;6211044;23;20235;-93
2022/06/14 20:20:34;;;;;;;1.50;1.40;;;;;;;22.44;71.13;97724.16;6211192;23;20156;-93
2022/06/14 20:23:01;;;;;;;1.70;1.60;;;;;;;18.01;70.93;97041.84;6259997;22;20564;-93